Time;durP1;ratioP1;P1;durP2;ratioP2;P2;SDS_P1;SDS_P2;PMS_P1;PMS_P2;Temp;Humidity;BMP_temperature;BMP_pressure;BME280_temperature;BME280_humidity;BME280_pressure;Samples;Min_cycle;Max_cycle;Signal;HPM_P1;HPM_P2
2022/05/14 00:01:42;;;;;;;4.88;2.90;;;;;;;;;;5067260;28;20044;-50
2022/05/14 00:04:10;;;;;;;6.88;3.13;;;;;;;;;;5068902;28;20052;-49
2022/05/14 00:06:36;;;;;;;5.22;2.97;;;;;;;;;;5060232;28;20025;-50
2022/05/14 00:09:05;;;;;;;5.38;3.60;;;;;;;;;;5056357;28;20037;-49
2022/05/14 00:14:16;;;;;;;6.32;2.70;;;;;;;;;;5066634;28;20036;-50
2022/05/14 00:16:42;;;;;;;6.25;2.97;;;;;;;;;;5073885;28;20388;-49
2022/05/14 00:19:08;;;;;;;5.05;3.13;;;;;;;;;;5074109;28;20110;-49
2022/05/14 00:21:35;;;;;;;6.72;2.88;;;;;;;;;;5072370;28;20029;-50
2022/05/14 00:24:01;;;;;;;4.70;3.13;;;;;;;;;;5066835;28;20036;-51
2022/05/14 00:26:27;;;;;;;7.07;3.33;;;;;;;;;;5065211;28;20129;-50
2022/05/14 00:28:53;;;;;;;4.88;3.42;;;;;;;;;;5069462;28;20037;-50
2022/05/14 00:31:20;;;;;;;5.15;2.97;;;;;;;;;;5057796;28;20043;-49
2022/05/14 00:33:46;;;;;;;4.70;2.90;;;;;;;;;;5068868;28;20028;-51
2022/05/14 00:36:12;;;;;;;4.22;2.83;;;;;;;;;;5065898;28;21239;-53
2022/05/14 00:38:39;;;;;;;3.75;2.55;;;;;;;;;;5066954;28;20039;-51
2022/05/14 00:41:06;;;;;;;6.65;2.55;;;;;;;;;;5066251;28;20024;-51
2022/05/14 00:43:34;;;;;;;6.43;2.97;;;;;;;;;;5069349;28;20039;-50
2022/05/14 00:46:26;;;;;;;5.43;3.15;;;;;;;;;;5064325;28;20032;-49
2022/05/14 00:48:54;;;;;;;5.00;2.88;;;;;;;;;;5020833;28;20128;-50
2022/05/14 00:51:26;;;;;;;4.88;2.80;;;;;;;;;;5061563;28;20124;-50
2022/05/14 00:53:54;;;;;;;3.92;2.88;;;;;;;;;;5065974;28;20110;-50
2022/05/14 00:56:22;;;;;;;6.78;3.00;;;;;;;;;;5062082;28;20367;-50
2022/05/14 00:58:54;;;;;;;7.35;2.65;;;;;;;;;;5061029;28;20032;-53
2022/05/14 01:01:20;;;;;;;8.32;2.67;;;;;;;;;;5064703;28;20021;-54
2022/05/14 01:03:46;;;;;;;8.68;3.08;;;;;;;;;;5063321;28;20485;-55
2022/05/14 01:06:14;;;;;;;7.93;3.33;;;;;;;;;;5066493;28;20029;-55
2022/05/14 01:08:40;;;;;;;11.48;3.42;;;;;;;;;;5067180;28;20031;-56
2022/05/14 01:11:06;;;;;;;6.03;2.85;;;;;;;;;;5059904;28;20028;-54
2022/05/14 01:13:32;;;;;;;4.53;3.30;;;;;;;;;;5068722;28;20035;-55
2022/05/14 01:16:00;;;;;;;8.07;3.30;;;;;;;;;;5071666;28;20475;-53
2022/05/14 01:18:27;;;;;;;5.30;3.30;;;;;;;;;;5072950;28;20472;-55
2022/05/14 01:20:58;;;;;;;6.43;3.17;;;;;;;;;;5060280;28;20396;-54
2022/05/14 01:23:24;;;;;;;10.25;3.67;;;;;;;;;;5059859;28;20037;-55
2022/05/14 01:26:28;;;;;;;5.25;3.10;;;;;;;;;;5053275;28;20094;-55
2022/05/14 01:28:54;;;;;;;;;;;;;;;;;;5053541;28;20680;-55
2022/05/14 01:31:20;;;;;;;6.68;3.47;;;;;;;;;;5057590;28;19924;-54
2022/05/14 01:33:46;;;;;;;4.88;3.00;;;;;;;;;;5064263;28;20082;-56
2022/05/14 01:36:12;;;;;;;6.85;3.45;;;;;;;;;;5068239;28;20396;-56
2022/05/14 01:38:38;;;;;;;7.53;3.22;;;;;;;;;;5052925;28;20029;-53
2022/05/14 01:41:04;;;;;;;9.18;3.63;;;;;;;;;;5067679;28;20182;-55
2022/05/14 01:43:31;;;;;;;4.60;3.10;;;;;;;;;;5069085;28;20115;-54
2022/05/14 01:45:57;;;;;;;3.80;3.33;;;;;;;;;;5062687;28;20090;-56
2022/05/14 01:48:23;;;;;;;5.90;3.22;;;;;;;;;;5069327;28;20039;-55
2022/05/14 01:50:48;;;;;;;6.90;3.47;;;;;;;;;;5064525;28;20436;-54
2022/05/14 01:53:15;;;;;;;4.85;3.42;;;;;;;;;;5063952;28;20051;-54
2022/05/14 01:55:41;;;;;;;6.10;3.58;;;;;;;;;;5065770;28;20025;-54
2022/05/14 02:00:52;;;;;;;5.07;3.30;;;;;;;;;;5059246;28;20116;-56
2022/05/14 02:03:18;;;;;;;5.50;4.03;;;;;;;;;;5074990;28;20577;-55
2022/05/14 02:05:44;;;;;;;3.72;3.15;;;;;;;;;;5068807;28;20032;-54
2022/05/14 02:08:10;;;;;;;4.07;3.00;;;;;;;;;;5051634;28;20051;-52
2022/05/14 02:10:36;;;;;;;6.05;3.65;;;;;;;;;;5062504;28;20596;-54
2022/05/14 02:13:02;;;;;;;4.93;3.40;;;;;;;;;;5056208;28;20021;-53
2022/05/14 02:15:28;;;;;;;4.72;2.90;;;;;;;;;;5070722;28;20029;-53
2022/05/14 02:17:57;;;;;;;6.75;3.50;;;;;;;;;;5071815;28;20116;-55
2022/05/14 02:20:23;;;;;;;5.40;3.00;;;;;;;;;;5070137;28;20052;-55
2022/05/14 02:22:49;;;;;;;7.47;3.30;;;;;;;;;;5068081;28;20037;-55
2022/05/14 02:25:15;;;;;;;6.22;3.28;;;;;;;;;;5067175;28;20025;-54
2022/05/14 02:27:41;;;;;;;6.50;3.38;;;;;;;;;;5052622;28;20484;-55
2022/05/14 02:30:07;;;;;;;5.50;3.25;;;;;;;;;;5055330;28;20040;-54
2022/05/14 02:32:33;;;;;;;10.77;3.83;;;;;;;;;;5073652;28;20028;-54
2022/05/14 02:34:59;;;;;;;5.85;3.47;;;;;;;;;;5067591;28;20051;-55
2022/05/14 02:37:26;;;;;;;5.95;3.13;;;;;;;;;;5067918;28;20032;-54
2022/05/14 02:39:53;;;;;;;6.82;3.30;;;;;;;;;;5071111;28;20036;-55
2022/05/14 02:42:19;;;;;;;6.75;3.40;;;;;;;;;;5066358;28;20465;-55
2022/05/14 02:44:45;;;;;;;7.07;3.88;;;;;;;;;;5051585;28;20078;-56
2022/05/14 02:47:11;;;;;;;5.85;3.55;;;;;;;;;;5056000;28;20032;-55
2022/05/14 02:49:37;;;;;;;5.28;3.00;;;;;;;;;;5071217;28;20021;-56
2022/05/14 02:52:05;;;;;;;4.75;3.22;;;;;;;;;;5069321;28;20471;-53
2022/05/14 02:54:31;;;;;;;4.50;3.15;;;;;;;;;;5071422;28;20036;-56
2022/05/14 02:56:57;;;;;;;11.25;4.10;;;;;;;;;;5067273;28;20100;-55
2022/05/14 02:59:23;;;;;;;5.85;2.95;;;;;;;;;;5033238;28;20025;-55
2022/05/14 03:01:49;;;;;;;11.65;3.78;;;;;;;;;;5062785;28;20484;-53
2022/05/14 03:04:16;;;;;;;4.45;3.05;;;;;;;;;;5065677;28;20024;-52
2022/05/14 03:06:42;;;;;;;4.57;2.92;;;;;;;;;;5060882;28;20037;-55
2022/05/14 03:09:08;;;;;;;5.55;3.28;;;;;;;;;;5055691;28;20143;-54
2022/05/14 03:11:34;;;;;;;6.18;3.22;;;;;;;;;;5063452;28;20460;-56
2022/05/14 03:14:00;;;;;;;7.95;3.30;;;;;;;;;;5068917;28;20029;-56
2022/05/14 03:16:26;;;;;;;7.25;3.20;;;;;;;;;;5058244;28;20025;-55
2022/05/14 03:18:52;;;;;;;4.75;3.47;;;;;;;;;;5059695;28;20068;-55
2022/05/14 03:21:18;;;;;;;7.13;3.30;;;;;;;;;;5063647;28;20389;-55
2022/05/14 03:23:44;;;;;;;8.80;3.60;;;;;;;;;;5061875;28;20029;-55
2022/05/14 03:26:10;;;;;;;7.45;3.25;;;;;;;;;;5059459;28;20067;-56
2022/05/14 03:28:36;;;;;;;6.15;3.38;;;;;;;;;;5062848;28;20044;-55
2022/05/14 03:31:02;;;;;;;7.35;3.45;;;;;;;;;;5055273;28;20701;-53
2022/05/14 03:33:28;;;;;;;6.03;3.30;;;;;;;;;;5061280;28;20029;-54
2022/05/14 03:35:54;;;;;;;8.07;3.35;;;;;;;;;;5067626;28;20396;-55
2022/05/14 03:38:20;;;;;;;8.45;3.60;;;;;;;;;;5059854;28;20036;-54
2022/05/14 03:40:47;;;;;;;6.90;2.92;;;;;;;;;;5054621;28;20029;-55
2022/05/14 03:43:13;;;;;;;6.93;3.67;;;;;;;;;;5054650;28;20070;-56
2022/05/14 03:45:39;;;;;;;8.43;3.47;;;;;;;;;;5065572;28;20037;-55
2022/05/14 03:48:05;;;;;;;4.93;3.42;;;;;;;;;;5060612;28;20043;-53
2022/05/14 03:50:31;;;;;;;9.65;4.25;;;;;;;;;;5063186;28;20037;-56
2022/05/14 03:52:57;;;;;;;5.85;3.30;;;;;;;;;;5062118;28;20108;-55
2022/05/14 03:55:23;;;;;;;5.40;3.63;;;;;;;;;;5063635;28;20033;-56
2022/05/14 03:57:49;;;;;;;7.75;4.05;;;;;;;;;;5059702;28;20036;-56
2022/05/14 04:00:15;;;;;;;6.00;3.72;;;;;;;;;;5061356;28;20057;-55
2022/05/14 04:02:41;;;;;;;7.60;3.80;;;;;;;;;;5059140;28;20029;-54
2022/05/14 04:05:07;;;;;;;5.72;3.20;;;;;;;;;;5066057;28;20388;-54
2022/05/14 04:07:33;;;;;;;7.88;3.83;;;;;;;;;;5058924;28;20116;-55
2022/05/14 04:09:59;;;;;;;6.80;3.28;;;;;;;;;;5063843;28;20035;-56
2022/05/14 04:12:27;;;;;;;4.65;3.28;;;;;;;;;;5060567;28;20040;-56
2022/05/14 04:14:53;;;;;;;7.70;3.58;;;;;;;;;;5066247;28;20103;-56
2022/05/14 04:17:19;;;;;;;8.70;3.78;;;;;;;;;;5053202;28;20541;-55
2022/05/14 04:19:44;;;;;;;4.25;3.30;;;;;;;;;;5061866;28;20048;-55
2022/05/14 04:22:10;;;;;;;7.63;3.40;;;;;;;;;;5061804;28;20032;-54
2022/05/14 04:24:36;;;;;;;7.43;3.30;;;;;;;;;;5066488;28;20033;-54
2022/05/14 04:27:03;;;;;;;6.53;3.58;;;;;;;;;;5061795;28;20032;-57
2022/05/14 04:29:29;;;;;;;7.05;3.60;;;;;;;;;;5069354;28;20051;-53
2022/05/14 04:31:55;;;;;;;7.97;3.70;;;;;;;;;;5059440;28;20029;-54
2022/05/14 04:34:20;;;;;;;7.10;3.38;;;;;;;;;;5068637;28;20029;-55
2022/05/14 04:36:46;;;;;;;6.03;3.55;;;;;;;;;;5059399;28;20020;-53
2022/05/14 04:39:13;;;;;;;8.63;3.63;;;;;;;;;;5064120;28;20029;-56
2022/05/14 04:41:39;;;;;;;5.15;3.22;;;;;;;;;;5062298;28;20459;-55
2022/05/14 04:44:05;;;;;;;7.40;3.42;;;;;;;;;;5060164;28;20103;-56
2022/05/14 04:46:32;;;;;;;5.47;2.92;;;;;;;;;;5061808;28;20419;-55
2022/05/14 04:48:57;;;;;;;8.43;3.35;;;;;;;;;;5068400;28;20027;-56
2022/05/14 04:51:23;;;;;;;7.90;3.83;;;;;;;;;;5055459;28;20029;-56
2022/05/14 04:53:49;;;;;;;5.32;2.55;;;;;;;;;;5060909;28;20029;-55
2022/05/14 04:56:15;;;;;;;7.25;3.33;;;;;;;;;;5068288;28;20535;-55
2022/05/14 04:58:41;;;;;;;3.65;2.33;;;;;;;;;;5059981;28;20328;-55
2022/05/14 05:01:07;;;;;;;4.72;3.20;;;;;;;;;;5064077;28;20028;-56
2022/05/14 05:03:33;;;;;;;4.93;3.15;;;;;;;;;;5066970;28;20111;-55
2022/05/14 05:06:00;;;;;;;5.30;2.70;;;;;;;;;;5073483;28;20413;-55
2022/05/14 05:08:27;;;;;;;6.82;2.58;;;;;;;;;;5071008;28;20033;-56
2022/05/14 05:10:54;;;;;;;5.07;3.08;;;;;;;;;;5067654;28;20024;-54
2022/05/14 05:13:21;;;;;;;5.47;2.63;;;;;;;;;;5057362;28;20033;-53
2022/05/14 05:15:48;;;;;;;7.65;3.20;;;;;;;;;;5069007;28;20029;-55
2022/05/14 05:18:14;;;;;;;5.07;2.92;;;;;;;;;;5060641;28;20020;-55
2022/05/14 05:20:42;;;;;;;4.47;2.47;;;;;;;;;;5064729;28;20869;-56
2022/05/14 05:23:11;;;;;;;7.40;2.78;;;;;;;;;;5063767;28;20445;-55
2022/05/14 05:25:38;;;;;;;6.22;2.90;;;;;;;;;;5067335;28;20056;-53
2022/05/14 05:28:04;;;;;;;6.18;2.38;;;;;;;;;;5063405;28;20025;-55
2022/05/14 05:30:30;;;;;;;7.03;2.53;;;;;;;;;;5063440;28;20043;-51
2022/05/14 05:32:56;;;;;;;6.00;2.80;;;;;;;;;;5066667;28;20029;-56
2022/05/14 05:35:22;;;;;;;5.03;2.30;;;;;;;;;;5066745;28;20068;-51
2022/05/14 05:37:48;;;;;;;6.95;2.72;;;;;;;;;;5060199;28;20025;-52
2022/05/14 05:40:15;;;;;;;11.35;2.95;;;;;;;;;;5061082;28;20036;-56
2022/05/14 05:42:41;;;;;;;7.13;2.38;;;;;;;;;;5060154;28;20028;-51
2022/05/14 05:45:07;;;;;;;5.00;2.33;;;;;;;;;;5058900;28;20466;-52
2022/05/14 05:47:33;;;;;;;7.00;2.30;;;;;;;;;;5065249;28;20082;-54
2022/05/14 05:49:59;;;;;;;8.73;2.38;;;;;;;;;;5054815;28;20028;-52
2022/05/14 05:52:25;;;;;;;5.68;2.70;;;;;;;;;;5067214;28;20020;-53
2022/05/14 05:57:37;;;;;;;5.82;2.67;;;;;;;;;;5057730;28;20121;-51
2022/05/14 06:00:05;;;;;;;6.65;2.58;;;;;;;;;;5060683;28;20440;-54
2022/05/14 06:02:31;;;;;;;6.38;2.80;;;;;;;;;;5068025;28;20032;-55
2022/05/14 06:04:57;;;;;;;3.35;2.10;;;;;;;;;;5060882;28;20035;-54
2022/05/14 06:07:23;;;;;;;6.43;2.53;;;;;;;;;;5058814;28;20396;-56
2022/05/14 06:09:49;;;;;;;5.18;2.42;;;;;;;;;;5058945;28;20025;-57
2022/05/14 06:12:15;;;;;;;8.63;2.75;;;;;;;;;;5058439;28;20095;-55
2022/05/14 06:14:42;;;;;;;7.32;2.28;;;;;;;;;;5059600;28;20102;-56
2022/05/14 06:17:08;;;;;;;8.77;3.00;;;;;;;;;;5063794;28;20031;-55
2022/05/14 06:19:34;;;;;;;4.55;2.50;;;;;;;;;;5061926;28;20045;-54
2022/05/14 06:21:59;;;;;;;8.43;2.50;;;;;;;;;;5066700;28;20032;-55
2022/05/14 06:24:25;;;;;;;5.25;2.33;;;;;;;;;;5069237;28;20029;-56
2022/05/14 06:26:52;;;;;;;9.13;3.03;;;;;;;;;;5053731;28;20029;-54
2022/05/14 06:29:18;;;;;;;7.18;2.17;;;;;;;;;;5067663;28;20062;-55
2022/05/14 06:31:44;;;;;;;6.28;1.95;;;;;;;;;;5065643;28;20040;-57
2022/05/14 06:34:11;;;;;;;7.32;2.67;;;;;;;;;;5063805;28;20036;-56
2022/05/14 06:36:37;;;;;;;8.38;2.80;;;;;;;;;;5062720;28;20021;-56
2022/05/14 06:39:03;;;;;;;5.15;1.80;;;;;;;;;;5058987;28;20094;-53
2022/05/14 06:41:30;;;;;;;8.25;2.03;;;;;;;;;;5062521;28;20035;-55
2022/05/14 06:43:56;;;;;;;5.88;2.00;;;;;;;;;;5057803;28;20399;-54
2022/05/14 06:46:22;;;;;;;8.55;2.25;;;;;;;;;;5065823;28;20048;-55
2022/05/14 06:48:48;;;;;;;5.68;2.28;;;;;;;;;;5055149;28;20048;-55
2022/05/14 06:51:17;;;;;;;7.85;2.30;;;;;;;;;;5054273;28;20032;-55
2022/05/14 06:53:43;;;;;;;5.28;1.90;;;;;;;;;;5057420;28;20068;-55
2022/05/14 06:56:11;;;;;;;3.80;2.03;;;;;;;;;;5065614;28;20056;-54
2022/05/14 06:58:38;;;;;;;8.85;2.63;;;;;;;;;;5050496;28;20032;-53
2022/05/14 07:01:04;;;;;;;7.15;2.20;;;;;;;;;;5062108;28;20032;-56
2022/05/14 07:09:01;;;;;;;5.68;1.88;;;;;;;;;;5061436;28;20514;-56
2022/05/14 07:11:27;;;;;;;6.65;1.98;;;;;;;;;;5057044;28;20024;-56
2022/05/14 07:13:54;;;;;;;7.70;2.72;;;;;;;;;;5056958;28;20051;-56
2022/05/14 07:16:20;;;;;;;6.43;2.40;;;;;;;;;;5057076;28;20941;-50
2022/05/14 07:18:45;;;;;;;9.35;2.05;;;;;;;;;;5056545;28;20032;-56
2022/05/14 07:21:12;;;;;;;5.75;2.10;;;;;;;;;;5070045;28;20028;-57
2022/05/14 07:23:38;;;;;;;11.63;2.45;;;;;;;;;;5059841;28;20032;-54
2022/05/14 07:26:05;;;;;;;8.00;2.45;;;;;;;;;;5053869;28;20079;-55
2022/05/14 07:28:33;;;;;;;6.20;2.45;;;;;;;;;;5051639;28;20040;-54
2022/05/14 07:30:59;;;;;;;6.07;2.72;;;;;;;;;;5065646;28;20024;-54
2022/05/14 07:33:26;;;;;;;7.85;2.30;;;;;;;;;;5070344;28;20099;-55
2022/05/14 07:35:52;;;;;;;6.57;2.63;;;;;;;;;;5070645;28;20100;-55
2022/05/14 07:38:18;;;;;;;8.18;2.20;;;;;;;;;;5070718;28;20082;-55
2022/05/14 07:40:44;;;;;;;5.50;1.95;;;;;;;;;;5070360;28;20528;-55
2022/05/14 07:43:21;;;;;;;7.13;2.35;;;;;;;;;;5070232;28;20040;-56
2022/05/14 07:45:50;;;;;;;10.73;2.92;;;;;;;;;;5052447;28;20036;-56
2022/05/14 07:48:18;;;;;;;8.60;2.42;;;;;;;;;;5070699;28;20039;-55
2022/05/14 07:50:44;;;;;;;9.15;2.60;;;;;;;;;;5070304;28;20020;-56
2022/05/14 07:53:11;;;;;;;6.78;2.15;;;;;;;;;;5070238;28;20033;-56
2022/05/14 07:55:37;;;;;;;4.65;1.95;;;;;;;;;;5068754;28;20086;-55
2022/05/14 07:58:04;;;;;;;10.35;2.78;;;;;;;;;;5073546;28;20456;-53
2022/05/14 08:00:30;;;;;;;9.70;2.25;;;;;;;;;;5072740;28;20055;-55
2022/05/14 08:02:57;;;;;;;10.60;2.55;;;;;;;;;;5071366;28;20541;-56
2022/05/14 08:05:23;;;;;;;3.55;2.10;;;;;;;;;;5074633;28;20028;-56
2022/05/14 08:07:49;;;;;;;7.45;2.22;;;;;;;;;;5074484;28;20103;-56
2022/05/14 08:10:16;;;;;;;7.05;2.63;;;;;;;;;;5073445;28;20369;-55
2022/05/14 08:12:46;;;;;;;6.45;2.20;;;;;;;;;;5074188;28;20439;-56
2022/05/14 08:15:14;;;;;;;6.93;2.30;;;;;;;;;;5074062;28;20494;-56
2022/05/14 08:17:40;;;;;;;7.55;2.70;;;;;;;;;;5074275;28;20020;-56
2022/05/14 08:20:06;;;;;;;9.02;2.38;;;;;;;;;;5069739;28;20064;-58
2022/05/14 08:25:17;;;;;;;6.05;2.10;;;;;;;;;;5071017;28;20066;-55
2022/05/14 08:27:47;;;;;;;10.45;2.42;;;;;;;;;;5061734;28;20461;-55
2022/05/14 08:30:14;;;;;;;9.43;2.00;;;;;;;;;;5064004;28;20496;-55
2022/05/14 08:32:40;;;;;;;6.65;2.25;;;;;;;;;;5067221;28;20028;-54
2022/05/14 08:35:06;;;;;;;7.65;2.28;;;;;;;;;;5070457;28;20024;-56
2022/05/14 08:37:32;;;;;;;8.77;2.45;;;;;;;;;;5053904;28;20017;-57
2022/05/14 08:39:58;;;;;;;5.65;2.28;;;;;;;;;;5071514;28;20397;-55
2022/05/14 08:42:25;;;;;;;12.35;2.20;;;;;;;;;;5073783;28;20025;-55
2022/05/14 08:44:51;;;;;;;6.57;2.30;;;;;;;;;;5073308;28;20031;-55
2022/05/14 08:47:40;;;;;;;8.07;1.95;;;;;;;;;;5059352;28;20788;-56
2022/05/14 08:50:07;;;;;;;4.28;1.67;;;;;;;;;;5071386;28;20033;-55
2022/05/14 08:52:34;;;;;;;4.88;1.70;;;;;;;;;;5056118;28;20503;-56
2022/05/14 08:55:01;;;;;;;6.00;1.55;;;;;;;;;;5053728;28;20028;-56
2022/05/14 08:57:32;;;;;;;3.45;1.80;;;;;;;;;;5053598;28;20104;-54
2022/05/14 08:59:59;;;;;;;7.35;2.10;;;;;;;;;;5075556;28;20025;-56
2022/05/14 09:02:36;;;;;;;13.07;2.53;;;;;;;;;;5069603;28;20090;-56
2022/05/14 09:05:08;;;;;;;8.65;2.40;;;;;;;;;;5061200;28;20489;-57
2022/05/14 09:07:36;;;;;;;6.40;2.35;;;;;;;;;;5071655;28;20443;-55
2022/05/14 09:10:03;;;;;;;6.90;1.73;;;;;;;;;;5070240;28;20464;-56
2022/05/14 09:12:31;;;;;;;3.80;1.65;;;;;;;;;;5070723;28;20033;-53
2022/05/14 09:15:03;;;;;;;9.35;2.03;;;;;;;;;;5071417;28;20017;-55
2022/05/14 09:17:30;;;;;;;3.80;1.73;;;;;;;;;;5053124;28;20028;-54
2022/05/14 09:19:57;;;;;;;3.90;1.75;;;;;;;;;;5061979;28;20132;-55
2022/05/14 09:22:23;;;;;;;5.30;1.40;;;;;;;;;;5072051;28;20028;-60
2022/05/14 09:24:54;;;;;;;9.63;1.70;;;;;;;;;;5072314;28;20496;-56
2022/05/14 09:27:43;;;;;;;4.57;1.58;;;;;;;;;;5068037;28;20081;-57
2022/05/14 09:30:12;;;;;;;8.60;1.75;;;;;;;;;;5052189;28;20066;-56
2022/05/14 09:32:43;;;;;;;8.05;1.70;;;;;;;;;;5067724;28;20059;-55
2022/05/14 09:35:09;;;;;;;3.40;1.45;;;;;;;;;;5072408;28;20024;-54
2022/05/14 09:37:35;;;;;;;6.25;2.10;;;;;;;;;;5072758;28;20021;-55
2022/05/14 09:40:04;;;;;;;6.22;1.25;;;;;;;;;;5064680;28;20032;-55
2022/05/14 09:42:38;;;;;;;6.47;1.50;;;;;;;;;;5053953;28;20064;-55
2022/05/14 09:45:16;;;;;;;6.25;1.90;;;;;;;;;;5063003;28;20051;-55
2022/05/14 09:47:42;;;;;;;10.70;1.70;;;;;;;;;;5052612;28;20594;-55
2022/05/14 09:50:16;;;;;;;3.88;1.40;;;;;;;;;;5062290;28;20032;-56
2022/05/14 09:52:42;;;;;;;7.72;1.30;;;;;;;;;;5071858;28;20174;-53
2022/05/14 09:55:08;;;;;;;13.20;2.08;;;;;;;;;;5072495;28;20078;-55
2022/05/14 09:57:43;;;;;;;10.70;1.58;;;;;;;;;;5040864;28;20059;-53
2022/05/14 10:00:20;;;;;;;4.97;1.85;;;;;;;;;;5061655;28;20032;-56
2022/05/14 10:02:57;;;;;;;7.72;1.90;;;;;;;;;;5051381;28;20485;-56
2022/05/14 10:05:42;;;;;;;8.55;1.98;;;;;;;;;;5068576;28;20034;-55
2022/05/14 10:08:08;;;;;;;10.02;1.98;;;;;;;;;;5060274;28;20488;-54
2022/05/14 10:10:34;;;;;;;6.90;1.80;;;;;;;;;;5060441;28;20032;-56
2022/05/14 10:13:03;;;;;;;13.00;2.30;;;;;;;;;;5063711;28;20024;-54
2022/05/14 10:15:41;;;;;;;7.85;1.55;;;;;;;;;;5065848;28;20063;-54
2022/05/14 10:18:20;;;;;;;5.57;1.77;;;;;;;;;;5060096;28;20413;-54
2022/05/14 10:20:53;;;;;;;10.77;1.73;;;;;;;;;;5070180;28;20045;-56
2022/05/14 10:29:11;;;;;;;6.25;1.42;;;;;;;;;;5070690;28;20040;-53
2022/05/14 10:31:54;;;;;;;8.38;2.22;;;;;;;;;;5067425;28;20029;-56
2022/05/14 10:34:24;;;;;;;8.07;1.60;;;;;;;;;;5059485;28;20033;-55
2022/05/14 10:36:55;;;;;;;8.18;1.55;;;;;;;;;;5066237;28;20041;-56
2022/05/14 10:39:25;;;;;;;6.50;1.90;;;;;;;;;;5059617;28;20047;-55
2022/05/14 10:41:58;;;;;;;5.30;1.40;;;;;;;;;;5061955;28;20033;-54
2022/05/14 10:44:36;;;;;;;4.82;1.63;;;;;;;;;;5067929;28;20108;-55
2022/05/14 10:47:04;;;;;;;8.25;1.98;;;;;;;;;;5071149;28;20038;-55
2022/05/14 10:49:44;;;;;;;4.22;1.58;;;;;;;;;;5063804;28;20025;-55
2022/05/14 10:52:13;;;;;;;7.05;1.88;;;;;;;;;;5063824;28;20077;-56
2022/05/14 10:54:39;;;;;;;7.82;1.85;;;;;;;;;;5065926;28;20514;-55
2022/05/14 10:57:14;;;;;;;6.70;1.45;;;;;;;;;;5063726;28;20028;-52
2022/05/14 10:59:46;;;;;;;6.97;1.48;;;;;;;;;;5063054;28;20033;-54
2022/05/14 11:02:12;;;;;;;4.90;1.45;;;;;;;;;;5065342;28;20134;-55
2022/05/14 11:04:40;;;;;;;7.20;1.83;;;;;;;;;;5070545;28;20396;-55
2022/05/14 11:07:06;;;;;;;13.23;1.45;;;;;;;;;;5051636;28;20032;-56
2022/05/14 11:09:44;;;;;;;6.43;2.15;;;;;;;;;;5050346;28;20037;-56
2022/05/14 11:12:12;;;;;;;10.10;2.00;;;;;;;;;;5064495;28;20032;-53
2022/05/14 11:14:41;;;;;;;6.68;1.92;;;;;;;;;;5067747;28;20032;-56
2022/05/14 11:17:42;;;;;;;3.55;1.60;;;;;;;;;;5069992;28;20082;-56
2022/05/14 11:20:08;;;;;;;7.60;1.85;;;;;;;;;;4981988;28;20476;-53
2022/05/14 11:23:00;;;;;;;8.18;1.80;;;;;;;;;;5045037;28;20445;-56
2022/05/14 11:25:27;;;;;;;7.30;2.20;;;;;;;;;;5052069;28;20051;-56
2022/05/14 11:28:14;;;;;;;4.85;1.60;;;;;;;;;;5062252;28;20464;-56
2022/05/14 11:30:42;;;;;;;11.98;2.00;;;;;;;;;;5062547;28;20086;-56
2022/05/14 11:33:23;;;;;;;5.05;1.80;;;;;;;;;;5062269;28;20028;-53
2022/05/14 11:35:50;;;;;;;11.57;1.48;;;;;;;;;;5060286;28;20021;-55
2022/05/14 11:38:29;;;;;;;8.23;1.90;;;;;;;;;;5067907;28;20100;-55
2022/05/14 11:40:59;;;;;;;7.40;1.70;;;;;;;;;;5061236;28;20032;-53
2022/05/14 11:43:28;;;;;;;5.18;1.60;;;;;;;;;;5055293;28;20056;-51
2022/05/14 11:46:10;;;;;;;6.65;1.50;;;;;;;;;;5062703;28;20027;-56
2022/05/14 11:48:46;;;;;;;10.10;1.65;;;;;;;;;;5061490;28;20033;-54
2022/05/14 11:51:18;;;;;;;6.93;1.65;;;;;;;;;;5059878;28;20123;-56
2022/05/14 11:53:49;;;;;;;6.95;1.67;;;;;;;;;;5063062;28;20384;-55
2022/05/14 11:56:33;;;;;;;7.70;2.00;;;;;;;;;;5062993;28;20652;-56
2022/05/14 11:59:05;;;;;;;6.53;1.70;;;;;;;;;;5060902;28;20024;-55
2022/05/14 12:01:33;;;;;;;9.65;1.92;;;;;;;;;;5051309;28;20024;-55
2022/05/14 12:04:01;;;;;;;10.25;1.98;;;;;;;;;;5061753;28;20036;-57
2022/05/14 12:06:43;;;;;;;7.15;1.80;;;;;;;;;;5054894;28;20416;-52
2022/05/14 12:09:28;;;;;;;7.20;1.60;;;;;;;;;;5069399;28;20021;-55
2022/05/14 12:12:00;;;;;;;9.82;2.05;;;;;;;;;;5063742;28;20029;-53
2022/05/14 12:14:35;;;;;;;5.53;1.50;;;;;;;;;;5054329;28;20544;-54
2022/05/14 12:17:03;;;;;;;5.65;1.60;;;;;;;;;;5054139;28;20119;-55
2022/05/14 12:19:34;;;;;;;9.07;1.85;;;;;;;;;;5065731;28;20468;-55
2022/05/14 12:22:05;;;;;;;6.88;1.88;;;;;;;;;;5067170;28;20510;-57
2022/05/14 12:24:33;;;;;;;7.15;1.45;;;;;;;;;;5061315;28;20040;-57
2022/05/14 12:26:59;;;;;;;8.38;1.55;;;;;;;;;;5051889;28;20037;-54
2022/05/14 12:29:33;;;;;;;5.65;1.25;;;;;;;;;;5055639;28;20032;-54
2022/05/14 12:34:46;;;;;;;11.63;1.88;;;;;;;;;;5063507;28;20074;-52
2022/05/14 12:37:20;;;;;;;8.48;1.73;;;;;;;;;;5058190;28;20120;-56
2022/05/14 12:39:47;;;;;;;6.88;1.92;;;;;;;;;;5058208;28;20040;-55
2022/05/14 12:42:14;;;;;;;10.80;2.50;;;;;;;;;;5058608;28;20035;-56
2022/05/14 12:44:45;;;;;;;6.45;1.55;;;;;;;;;;5066163;28;20043;-53
2022/05/14 12:47:21;;;;;;;7.72;1.65;;;;;;;;;;5061853;28;20511;-55
2022/05/14 12:49:47;;;;;;;7.85;1.70;;;;;;;;;;5059641;28;20099;-55
2022/05/14 12:52:14;;;;;;;7.13;1.67;;;;;;;;;;5065386;28;20072;-56
2022/05/14 12:54:56;;;;;;;5.55;1.90;;;;;;;;;;5060484;28;20053;-54
2022/05/14 12:57:23;;;;;;;10.65;2.50;;;;;;;;;;5063043;28;20038;-54
2022/05/14 12:59:49;;;;;;;7.47;1.92;;;;;;;;;;5061257;28;20375;-54
2022/05/14 13:02:21;;;;;;;2.85;1.50;;;;;;;;;;5057205;28;20033;-53
2022/05/14 13:04:52;;;;;;;6.80;1.53;;;;;;;;;;5064731;28;20035;-56
2022/05/14 13:07:18;;;;;;;10.75;1.90;;;;;;;;;;5061377;28;20039;-54
2022/05/14 13:09:44;;;;;;;5.72;1.83;;;;;;;;;;5051529;28;20387;-53
2022/05/14 13:12:18;;;;;;;4.88;1.75;;;;;;;;;;5060247;28;20033;-51
2022/05/14 13:14:49;;;;;;;6.53;1.95;;;;;;;;;;5061634;28;20043;-52
2022/05/14 13:17:15;;;;;;;9.13;1.80;;;;;;;;;;5065964;28;20407;-52
2022/05/14 13:19:43;;;;;;;4.68;1.48;;;;;;;;;;5072496;28;20041;-52
2022/05/14 13:22:13;;;;;;;8.25;1.73;;;;;;;;;;5062958;28;20119;-53
2022/05/14 13:24:51;;;;;;;4.20;1.63;;;;;;;;;;5069540;28;20820;-53
2022/05/14 13:27:27;;;;;;;7.05;1.58;;;;;;;;;;5054900;28;20037;-53
2022/05/14 13:30:00;;;;;;;12.70;1.98;;;;;;;;;;5059015;28;20064;-54
2022/05/14 13:32:27;;;;;;;6.47;1.80;;;;;;;;;;5064228;28;20542;-55
2022/05/14 13:37:43;;;;;;;9.65;1.83;;;;;;;;;;5064431;28;20039;-54
2022/05/14 13:40:18;;;;;;;6.45;1.70;;;;;;;;;;5065907;28;20530;-54
2022/05/14 13:42:57;;;;;;;8.38;1.60;;;;;;;;;;5056827;28;20031;-54
2022/05/14 13:45:25;;;;;;;5.80;1.27;;;;;;;;;;5066558;28;20029;-54
2022/05/14 13:47:53;;;;;;;6.28;1.90;;;;;;;;;;5056752;28;20632;-55
2022/05/14 13:50:24;;;;;;;6.50;1.95;;;;;;;;;;5063137;28;20069;-53
2022/05/14 13:52:52;;;;;;;9.10;2.75;;;;;;;;;;5069121;28;20098;-54
2022/05/14 13:55:28;;;;;;;6.35;1.52;;;;;;;;;;5063837;28;20024;-54
2022/05/14 13:57:56;;;;;;;11.32;2.05;;;;;;;;;;5054225;28;20399;-54
2022/05/14 14:00:24;;;;;;;4.50;1.30;;;;;;;;;;5065154;28;20083;-54
2022/05/14 14:03:00;;;;;;;8.45;1.80;;;;;;;;;;5060462;28;20070;-56
2022/05/14 14:05:26;;;;;;;6.35;1.77;;;;;;;;;;5059804;28;20571;-53
2022/05/14 14:07:52;;;;;;;4.22;1.73;;;;;;;;;;5057456;28;20048;-53
2022/05/14 14:10:20;;;;;;;6.10;1.52;;;;;;;;;;5064653;28;20028;-54
2022/05/14 14:12:47;;;;;;;11.05;2.15;;;;;;;;;;5060784;28;20477;-53
2022/05/14 14:15:16;;;;;;;5.00;1.80;;;;;;;;;;5065420;28;20032;-53
2022/05/14 14:17:47;;;;;;;8.35;2.65;;;;;;;;;;5070044;28;20465;-52
2022/05/14 14:20:13;;;;;;;5.72;1.73;;;;;;;;;;5066094;28;20053;-53
2022/05/14 14:22:39;;;;;;;13.75;1.92;;;;;;;;;;5065323;28;20554;-54
2022/05/14 14:25:05;;;;;;;7.35;1.95;;;;;;;;;;5065502;28;20031;-54
2022/05/14 14:27:32;;;;;;;10.88;2.47;;;;;;;;;;5069389;28;20036;-54
2022/05/14 14:29:57;;;;;;;10.25;1.90;;;;;;;;;;5069742;28;20020;-52
2022/05/14 14:32:25;;;;;;;12.35;2.05;;;;;;;;;;5067616;28;20362;-53
2022/05/14 14:34:51;;;;;;;5.57;1.70;;;;;;;;;;5068343;28;20043;-54
2022/05/14 14:37:17;;;;;;;7.40;2.40;;;;;;;;;;5057141;28;20024;-52
2022/05/14 14:39:44;;;;;;;6.97;1.60;;;;;;;;;;5063453;28;20028;-51
2022/05/14 14:42:12;;;;;;;4.63;1.50;;;;;;;;;;5058784;28;20546;-53
2022/05/14 14:44:38;;;;;;;7.38;2.20;;;;;;;;;;5062503;28;20032;-54
2022/05/14 14:47:04;;;;;;;13.07;2.28;;;;;;;;;;5055250;28;20044;-54
2022/05/14 14:49:32;;;;;;;4.10;1.55;;;;;;;;;;5057988;28;20025;-54
2022/05/14 14:51:58;;;;;;;12.80;2.78;;;;;;;;;;5063874;28;20117;-55
2022/05/14 14:54:24;;;;;;;9.35;1.90;;;;;;;;;;5069142;28;20083;-55
2022/05/14 14:56:50;;;;;;;4.93;1.25;;;;;;;;;;5065425;28;20025;-55
2022/05/14 14:59:16;;;;;;;6.55;1.80;;;;;;;;;;5065573;28;20417;-51
2022/05/14 15:01:46;;;;;;;9.90;4.75;;;;;;;;;;5055937;28;20033;-55
2022/05/14 15:04:14;;;;;;;10.05;2.00;;;;;;;;;;5062324;28;20518;-56
2022/05/14 15:06:41;;;;;;;7.50;2.22;;;;;;;;;;5066964;28;20621;-54
2022/05/14 15:09:07;;;;;;;9.40;3.17;;;;;;;;;;5064849;28;20155;-55
2022/05/14 15:11:33;;;;;;;12.38;2.78;;;;;;;;;;5063318;28;20107;-54
2022/05/14 15:14:01;;;;;;;12.02;2.75;;;;;;;;;;5067173;28;20020;-55
2022/05/14 15:16:27;;;;;;;9.30;1.60;;;;;;;;;;5062085;28;20066;-54